Time;durP1;ratioP1;P1;durP2;ratioP2;P2;SDS_P1;SDS_P2;PMS_P1;PMS_P2;Temp;Humidity;BMP_temperature;BMP_pressure;BME280_temperature;BME280_humidity;BME280_pressure;Samples;Min_cycle;Max_cycle;Signal;HPM_P1;HPM_P2
2022/03/10 00:01:59;;;;;;;14.27;7.60;;;-4.00;99.90;;;;;;8329961;28;20224;-63
2022/03/10 00:06:00;;;;;;;17.63;7.10;;;-4.00;99.90;;;;;;8328463;28;20216;-65
2022/03/10 00:10:00;;;;;;;14.83;7.77;;;-4.00;99.90;;;;;;8347294;28;20207;-63
2022/03/10 00:14:01;;;;;;;17.43;7.83;;;-4.10;99.90;;;;;;8331574;28;20276;-64
2022/03/10 00:18:02;;;;;;;15.77;8.50;;;-4.10;99.90;;;;;;8332598;28;20205;-63
2022/03/10 00:22:04;;;;;;;14.47;7.53;;;-4.10;99.90;;;;;;8331066;28;20223;-65
2022/03/10 00:26:05;;;;;;;17.03;8.27;;;-4.10;99.90;;;;;;8344437;28;20228;-63
2022/03/10 00:30:07;;;;;;;13.30;7.10;;;-4.10;99.90;;;;;;8349701;28;20234;-65
2022/03/10 00:34:08;;;;;;;16.93;7.43;;;-4.20;99.90;;;;;;8333390;28;20216;-64
2022/03/10 00:38:09;;;;;;;14.53;7.80;;;-4.20;99.90;;;;;;8343638;28;20211;-63
2022/03/10 00:42:10;;;;;;;13.17;6.97;;;-4.30;99.90;;;;;;8330890;28;20287;-63
2022/03/10 00:46:11;;;;;;;20.43;7.60;;;-4.30;99.90;;;;;;8349723;28;20217;-63
2022/03/10 00:50:12;;;;;;;20.50;7.50;;;-4.30;99.90;;;;;;8331350;28;20204;-65
2022/03/10 00:54:13;;;;;;;12.57;7.13;;;-4.40;99.90;;;;;;8324125;28;20208;-64
2022/03/10 00:58:14;;;;;;;16.83;7.87;;;-4.40;99.90;;;;;;8342145;28;20289;-65
2022/03/10 01:02:15;;;;;;;11.47;6.10;;;-4.40;99.90;;;;;;8347853;28;20213;-64
2022/03/10 01:06:15;;;;;;;17.10;8.27;;;-4.50;99.90;;;;;;8322812;28;20484;-64
2022/03/10 01:10:17;;;;;;;13.57;6.40;;;-4.50;99.90;;;;;;8342391;28;20292;-64
2022/03/10 01:14:18;;;;;;;14.63;6.90;;;-4.50;99.90;;;;;;8341920;28;20287;-64
2022/03/10 01:18:19;;;;;;;18.10;7.43;;;-4.60;99.90;;;;;;8329817;28;20216;-63
2022/03/10 01:22:19;;;;;;;14.07;6.93;;;-4.60;99.90;;;;;;8347141;28;20212;-64
2022/03/10 01:26:20;;;;;;;17.07;8.13;;;-4.60;99.90;;;;;;8331543;28;20234;-64
2022/03/10 01:30:21;;;;;;;17.43;8.63;;;-4.60;99.90;;;;;;8332617;28;20221;-64
2022/03/10 01:34:22;;;;;;;12.53;7.03;;;-4.50;99.90;;;;;;8324353;28;20292;-65
2022/03/10 01:38:23;;;;;;;16.53;7.07;;;-4.60;99.90;;;;;;8331546;28;20211;-64
2022/03/10 01:42:24;;;;;;;16.33;6.70;;;-4.60;99.90;;;;;;8328901;28;20218;-66
2022/03/10 01:46:26;;;;;;;12.60;6.30;;;-4.70;99.90;;;;;;8343651;28;20238;-64
2022/03/10 01:50:27;;;;;;;16.23;7.17;;;-4.70;99.90;;;;;;8341518;28;20214;-64
2022/03/10 01:54:27;;;;;;;13.77;7.00;;;-4.70;99.90;;;;;;8344720;28;20214;-65
2022/03/10 01:58:28;;;;;;;13.97;7.27;;;-4.70;99.90;;;;;;8324658;28;20306;-65
2022/03/10 02:02:29;;;;;;;17.47;8.00;;;-4.80;99.90;;;;;;8347957;28;20219;-64
2022/03/10 02:06:31;;;;;;;15.93;7.00;;;-4.80;99.90;;;;;;8350411;28;20224;-64
2022/03/10 02:10:32;;;;;;;14.97;7.47;;;-4.80;99.90;;;;;;8348927;28;20308;-63
2022/03/10 02:18:52;;;;;;;14.37;7.00;;;-4.80;99.90;;;;;;8348184;28;20253;-64
2022/03/10 02:22:53;;;;;;;15.43;7.40;;;-4.90;99.90;;;;;;8348433;28;20207;-64
2022/03/10 02:26:54;;;;;;;16.20;8.47;;;-4.90;99.90;;;;;;8348834;28;20220;-64
2022/03/10 02:30:55;;;;;;;14.77;7.80;;;-4.90;99.90;;;;;;8329245;28;20252;-64
2022/03/10 02:34:56;;;;;;;13.70;7.23;;;-4.90;99.90;;;;;;8325335;28;20268;-64
2022/03/10 02:38:57;;;;;;;15.27;7.33;;;-4.90;99.90;;;;;;8324000;28;20215;-64
2022/03/10 02:42:58;;;;;;;14.97;7.27;;;-4.90;99.90;;;;;;8340994;28;20213;-62
2022/03/10 02:46:59;;;;;;;13.60;7.87;;;-5.00;99.90;;;;;;8330559;28;20222;-64
2022/03/10 02:51:00;;;;;;;16.13;7.00;;;-5.00;99.90;;;;;;8347379;28;20209;-63
2022/03/10 02:55:02;;;;;;;17.80;7.87;;;-5.00;99.90;;;;;;8348619;28;20286;-64
2022/03/10 02:59:03;;;;;;;16.37;6.90;;;-5.10;99.90;;;;;;8346055;28;20207;-65
2022/03/10 03:03:04;;;;;;;17.77;8.30;;;-5.10;99.90;;;;;;8347921;28;20210;-63
2022/03/10 03:07:04;;;;;;;16.10;8.10;;;-5.10;99.90;;;;;;8348598;28;20230;-64
2022/03/10 03:11:05;;;;;;;18.27;8.57;;;-5.10;99.90;;;;;;8329657;28;20194;-63
2022/03/10 03:15:06;;;;;;;17.47;9.00;;;-5.10;99.90;;;;;;8330068;28;20198;-63
2022/03/10 03:19:07;;;;;;;21.00;9.23;;;-5.20;99.90;;;;;;8338512;28;20588;-64
2022/03/10 03:23:08;;;;;;;21.33;9.23;;;-5.20;99.90;;;;;;8324474;28;20199;-63
2022/03/10 03:27:09;;;;;;;18.67;8.00;;;-5.20;99.90;;;;;;8327387;28;20241;-64
2022/03/10 03:31:11;;;;;;;17.83;8.53;;;-5.20;99.90;;;;;;8339667;28;20197;-64
2022/03/10 03:35:12;;;;;;;16.23;7.67;;;-5.20;99.90;;;;;;8330789;28;20206;-63
2022/03/10 03:39:13;;;;;;;19.40;8.50;;;-5.30;99.90;;;;;;8333448;28;20255;-65
2022/03/10 03:43:14;;;;;;;16.40;8.07;;;-5.30;99.90;;;;;;8345878;28;20208;-63
2022/03/10 03:47:15;;;;;;;14.07;7.50;;;-5.40;99.90;;;;;;8334579;28;20238;-63
2022/03/10 03:51:16;;;;;;;16.47;7.87;;;-5.40;99.90;;;;;;8352959;28;20194;-64
2022/03/10 03:55:17;;;;;;;17.83;8.70;;;-5.40;99.90;;;;;;8335130;28;20206;-64
2022/03/10 03:59:20;;;;;;;19.23;8.17;;;-5.40;99.90;;;;;;8351564;28;20354;-64
2022/03/10 04:03:21;;;;;;;16.40;7.57;;;-5.40;99.90;;;;;;8352433;28;20204;-64
2022/03/10 04:07:22;;;;;;;19.03;9.03;;;-5.50;99.90;;;;;;8352112;28;20237;-64
2022/03/10 04:11:23;;;;;;;17.60;8.40;;;-5.50;99.90;;;;;;8352667;28;20194;-64
2022/03/10 04:15:24;;;;;;;19.87;8.60;;;-5.50;99.90;;;;;;8334997;28;20244;-64
2022/03/10 04:19:25;;;;;;;18.40;9.27;;;-5.50;99.90;;;;;;8332166;28;20206;-64
2022/03/10 04:23:26;;;;;;;25.27;10.50;;;-5.50;99.90;;;;;;8350993;28;20213;-63
2022/03/10 04:27:27;;;;;;;22.63;10.57;;;-5.50;99.90;;;;;;8329811;28;20222;-64
2022/03/10 04:31:28;;;;;;;25.30;9.53;;;-5.50;99.90;;;;;;8329685;28;20233;-64
2022/03/10 04:35:29;;;;;;;18.27;7.67;;;-5.50;99.90;;;;;;8321449;28;20353;-64
2022/03/10 04:39:30;;;;;;;19.17;9.20;;;-5.50;99.90;;;;;;8348225;28;20214;-64
2022/03/10 04:43:31;;;;;;;13.67;7.57;;;-5.60;99.90;;;;;;8344397;28;20207;-64
2022/03/10 04:47:31;;;;;;;16.20;7.80;;;-5.60;99.90;;;;;;8331616;28;20230;-63
2022/03/10 04:51:32;;;;;;;17.37;8.87;;;-5.60;99.90;;;;;;8332026;28;20229;-64
2022/03/10 04:55:33;;;;;;;21.60;9.63;;;-5.50;99.90;;;;;;8339892;28;20209;-64
2022/03/10 04:59:34;;;;;;;19.40;8.60;;;-5.50;99.90;;;;;;8344102;28;20215;-63
2022/03/10 05:03:35;;;;;;;20.97;9.37;;;-5.50;99.90;;;;;;8349959;28;20263;-64
2022/03/10 05:07:36;;;;;;;23.57;10.47;;;-5.50;99.90;;;;;;8326784;28;20274;-65
2022/03/10 05:11:37;;;;;;;18.57;10.07;;;-5.40;99.90;;;;;;8331799;28;20229;-64
2022/03/10 05:15:38;;;;;;;22.53;10.27;;;-5.20;99.90;;;;;;8351469;28;20299;-64
2022/03/10 05:19:38;;;;;;;25.53;11.33;;;-5.00;99.90;;;;;;8350610;28;20197;-63
2022/03/10 05:23:39;;;;;;;24.40;10.80;;;-4.70;99.90;;;;;;8350422;28;20203;-64
2022/03/10 05:27:41;;;;;;;18.90;10.53;;;-4.50;99.90;;;;;;8349108;28;20283;-64
2022/03/10 05:31:42;;;;;;;20.43;11.00;;;-4.30;99.90;;;;;;8349660;28;20211;-63
2022/03/10 05:35:43;;;;;;;22.70;12.37;;;-4.20;99.90;;;;;;8332914;28;20215;-63
2022/03/10 05:39:44;;;;;;;22.60;10.33;;;-4.00;99.90;;;;;;8349563;28;20196;-64
2022/03/10 05:43:44;;;;;;;22.67;10.70;;;-3.80;99.90;;;;;;8329740;28;20710;-64
2022/03/10 05:47:46;;;;;;;23.20;10.97;;;-3.60;99.90;;;;;;8347301;28;20235;-64
2022/03/10 05:51:47;;;;;;;23.07;10.50;;;-3.50;99.90;;;;;;8324417;28;20213;-63
2022/03/10 05:55:48;;;;;;;22.87;11.47;;;-3.30;99.90;;;;;;8326971;28;20216;-64
2022/03/10 05:59:49;;;;;;;24.87;13.47;;;-3.20;99.90;;;;;;8327836;28;20216;-63
2022/03/10 06:03:50;;;;;;;35.97;18.03;;;-3.00;99.90;;;;;;8347530;28;20295;-64
2022/03/10 06:07:50;;;;;;;55.17;25.53;;;-2.90;99.90;;;;;;8347984;28;20226;-64
2022/03/10 06:11:51;;;;;;;60.50;29.27;;;-2.80;99.90;;;;;;8321351;28;20212;-64
2022/03/10 06:15:52;;;;;;;58.63;26.23;;;-2.60;99.90;;;;;;8326544;28;20457;-63
2022/03/10 06:19:53;;;;;;;45.97;22.93;;;-2.40;99.90;;;;;;8340875;28;20216;-64
2022/03/10 06:23:55;;;;;;;44.63;22.37;;;-2.30;99.90;;;;;;8327071;28;20283;-64
2022/03/10 06:27:56;;;;;;;53.07;26.33;;;-2.10;99.90;;;;;;8347154;28;20225;-63
2022/03/10 06:31:56;;;;;;;90.10;39.73;;;-1.90;99.90;;;;;;8342306;28;20428;-64
2022/03/10 06:35:57;;;;;;;119.97;52.97;;;-1.70;99.90;;;;;;8350245;28;20213;-64
2022/03/10 06:39:58;;;;;;;99.30;43.47;;;-1.40;99.90;;;;;;8347401;28;20232;-64
2022/03/10 06:43:59;;;;;;;92.20;41.37;;;-1.20;99.90;;;;;;8329057;28;20209;-65
2022/03/10 06:48:00;;;;;;;92.23;41.70;;;-1.00;99.90;;;;;;8328851;28;20208;-65
2022/03/10 06:52:01;;;;;;;95.13;43.93;;;-0.80;99.90;;;;;;8330010;28;20486;-64
2022/03/10 06:56:02;;;;;;;94.00;43.87;;;-0.50;99.90;;;;;;8340696;28;20211;-64
2022/03/10 07:00:05;;;;;;;113.27;55.90;;;-0.30;99.90;;;;;;8320694;28;20223;-64
2022/03/10 07:04:05;;;;;;;147.03;72.23;;;-0.10;99.90;;;;;;8335479;28;20226;-64
2022/03/10 07:08:07;;;;;;;135.73;67.47;;;0.10;99.90;;;;;;8324282;28;20207;-63
2022/03/10 07:12:09;;;;;;;112.97;57.97;;;0.40;99.90;;;;;;8334129;28;20321;-63
2022/03/10 07:16:10;;;;;;;54.17;29.97;;;0.60;99.90;;;;;;8326938;28;20269;-64
2022/03/10 07:20:14;;;;;;;68.37;34.57;;;0.70;99.90;;;;;;8331714;28;20216;-64
2022/03/10 07:24:14;;;;;;;84.40;37.53;;;1.00;99.90;;;;;;8332027;28;20221;-63
2022/03/10 07:28:15;;;;;;;57.63;28.63;;;1.20;99.90;;;;;;8350031;28;20255;-65
2022/03/10 07:32:17;;;;;;;59.73;28.23;;;1.40;99.90;;;;;;8333614;28;20213;-65
2022/03/10 07:36:18;;;;;;;58.67;29.70;;;1.70;99.90;;;;;;8311937;28;20202;-65
2022/03/10 07:40:20;;;;;;;69.10;31.33;;;2.00;99.90;;;;;;8346326;28;20209;-66
2022/03/10 07:44:21;;;;;;;81.50;41.20;;;2.30;99.90;;;;;;8339834;28;20209;-66
2022/03/10 07:48:23;;;;;;;53.77;27.37;;;2.60;99.90;;;;;;8352797;28;20212;-65
2022/03/10 07:52:24;;;;;;;37.20;19.17;;;2.90;1.00;;;;;;8353670;28;20228;-64
2022/03/10 07:56:25;;;;;;;44.57;24.43;;;3.20;99.90;;;;;;8354266;28;20247;-66
2022/03/10 08:00:25;;;;;;;38.50;19.53;;;3.30;1.00;;;;;;8349568;28;20221;-64
2022/03/10 08:04:26;;;;;;;25.00;14.73;;;3.50;99.90;;;;;;8353402;28;20233;-65
2022/03/10 08:08:27;;;;;;;21.97;13.30;;;3.60;99.90;;;;;;8352702;28;20266;-63
2022/03/10 08:12:29;;;;;;;37.27;18.30;;;3.80;99.90;;;;;;8352745;28;20611;-65
2022/03/10 08:16:30;;;;;;;22.20;14.13;;;3.90;1.00;;;;;;8334365;28;20203;-64
2022/03/10 08:20:31;;;;;;;22.43;13.37;;;4.00;1.50;;;;;;8351576;28;20206;-64
2022/03/10 08:24:31;;;;;;;22.73;12.80;;;4.10;1.00;;;;;;8331969;28;20215;-63
2022/03/10 08:28:33;;;;;;;20.33;12.13;;;4.20;99.90;;;;;;8333136;28;20213;-63
2022/03/10 08:32:34;;;;;;;20.13;12.03;;;4.30;99.90;;;;;;8330380;28;20253;-64
2022/03/10 08:36:35;;;;;;;18.07;11.33;;;4.40;99.90;;;;;;8327864;28;20209;-66
2022/03/10 08:40:35;;;;;;;19.27;12.17;;;4.30;10.00;;;;;;8330154;28;20205;-64
2022/03/10 08:44:37;;;;;;;22.83;12.33;;;4.40;1.00;;;;;;8318308;28;20218;-65
2022/03/10 08:48:40;;;;;;;21.17;11.70;;;4.50;1.00;;;;;;8332513;28;20218;-65
2022/03/10 08:52:41;;;;;;;21.07;11.87;;;4.60;35.80;;;;;;8350258;28;20190;-66
2022/03/10 08:56:42;;;;;;;20.80;12.63;;;4.60;1.00;;;;;;8327200;28;20217;-66
2022/03/10 09:00:43;;;;;;;19.47;12.10;;;4.60;22.20;;;;;;8323793;28;20216;-65
2022/03/10 09:04:44;;;;;;;18.83;11.07;;;4.70;99.90;;;;;;8345846;28;20574;-64
2022/03/10 09:08:45;;;;;;;13.77;10.87;;;4.80;1.00;;;;;;8316689;28;20227;-65
2022/03/10 09:12:46;;;;;;;15.50;10.43;;;4.90;99.90;;;;;;8346230;28;20199;-66
2022/03/10 09:16:47;;;;;;;17.03;9.93;;;5.00;99.90;;;;;;8331709;28;20210;-65
2022/03/10 09:20:47;;;;;;;17.57;10.47;;;5.10;99.90;;;;;;8319408;28;20281;-64
2022/03/10 09:24:48;;;;;;;14.33;10.13;;;5.20;99.90;;;;;;8328408;28;20229;-66
2022/03/10 09:28:49;;;;;;;17.87;11.43;;;5.10;99.90;;;;;;8348735;28;20273;-64
2022/03/10 09:32:50;;;;;;;14.27;10.50;;;5.20;99.90;;;;;;8329885;28;20226;-66
2022/03/10 09:37:00;;;;;;;14.50;9.70;;;5.30;99.90;;;;;;8331530;28;20208;-66
2022/03/10 09:41:01;;;;;;;12.97;9.40;;;5.50;99.90;;;;;;8320472;28;20235;-63
2022/03/10 09:45:08;;;;;;;17.23;9.80;;;5.60;99.90;;;;;;8323611;28;20229;-63
2022/03/10 09:49:09;;;;;;;23.33;12.97;;;6.00;18.50;;;;;;8349120;28;20250;-63
2022/03/10 09:53:10;;;;;;;30.03;14.63;;;6.60;1.00;;;;;;8348930;28;20209;-67
2022/03/10 09:57:14;;;;;;;24.47;14.23;;;6.80;99.90;;;;;;8325764;28;20402;-64
2022/03/10 10:01:15;;;;;;;52.80;21.60;;;6.90;99.90;;;;;;8342343;28;20297;-64
2022/03/10 10:05:31;;;;;;;32.50;15.30;;;6.80;99.90;;;;;;8325088;28;20236;-66
2022/03/10 10:09:45;;;;;;;30.47;14.80;;;6.50;99.90;;;;;;8331386;28;20194;-64
2022/03/10 10:13:50;;;;;;;26.20;14.30;;;6.50;99.90;;;;;;8349716;28;20232;-63
2022/03/10 10:17:57;;;;;;;17.50;12.13;;;6.70;99.90;;;;;;8348859;28;20193;-66
2022/03/10 10:22:14;;;;;;;23.17;13.57;;;6.70;99.90;;;;;;8331566;28;20274;-64
2022/03/10 10:26:15;;;;;;;16.03;10.33;;;6.80;99.90;;;;;;8331668;28;20499;-66
2022/03/10 10:30:16;;;;;;;20.37;13.33;;;7.00;99.90;;;;;;8329924;28;20205;-65
2022/03/10 10:34:30;;;;;;;34.47;16.13;;;7.10;20.80;;;;;;8331401;28;20205;-67
2022/03/10 10:38:32;;;;;;;18.37;11.97;;;7.30;1.00;;;;;;8314976;28;20229;-65
2022/03/10 10:42:35;;;;;;;16.30;10.03;;;7.30;1.00;;;;;;8319158;28;20289;-66
2022/03/10 10:46:43;;;;;;;22.30;13.00;;;7.60;1.00;;;;;;8335787;28;20222;-64
2022/03/10 10:50:45;;;;;;;13.93;9.37;;;7.70;99.90;;;;;;8346257;28;20228;-64
2022/03/10 10:54:46;;;;;;;15.23;10.07;;;7.40;99.90;;;;;;8335751;28;20613;-65
2022/03/10 10:58:47;;;;;;;28.90;15.63;;;6.80;1.00;;;;;;8333730;28;20206;-62
2022/03/10 11:02:50;;;;;;;15.77;9.97;;;6.70;1.00;;;;;;8341828;28;20228;-64
2022/03/10 11:06:51;;;;;;;11.47;8.57;;;6.70;1.00;;;;;;8335670;28;20225;-64
2022/03/10 11:10:53;;;;;;;13.50;9.23;;;6.50;1.00;;;;;;8332685;28;20215;-63
2022/03/10 11:14:54;;;;;;;9.60;6.97;;;6.60;99.90;;;;;;8348485;28;20206;-65
2022/03/10 11:18:55;;;;;;;8.50;6.27;;;6.70;99.90;;;;;;8331792;28;20205;-66
2022/03/10 11:23:02;;;;;;;8.30;6.10;;;6.70;99.90;;;;;;8343935;28;20217;-66
2022/03/10 11:27:09;;;;;;;9.40;6.67;;;6.70;99.90;;;;;;8324442;28;20322;-64
2022/03/10 11:31:11;;;;;;;5.87;4.63;;;6.70;99.90;;;;;;8316397;28;20197;-65
2022/03/10 11:35:16;;;;;;;6.03;4.50;;;6.70;99.90;;;;;;8332349;28;20237;-64
2022/03/10 11:39:23;;;;;;;7.57;4.67;;;6.70;99.90;;;;;;8332544;28;20275;-66
2022/03/10 11:43:36;;;;;;;9.13;5.40;;;6.80;99.90;;;;;;8327011;28;20256;-64
2022/03/10 11:47:38;;;;;;;5.47;4.00;;;6.90;99.90;;;;;;8325595;28;20344;-65
2022/03/10 11:52:03;;;;;;;6.63;3.87;;;6.80;74.30;;;;;;8326865;28;20201;-64
2022/03/10 11:56:04;;;;;;;5.20;3.87;;;6.80;47.90;;;;;;8334206;28;20208;-65
2022/03/10 12:00:06;;;;;;;9.07;5.93;;;6.80;83.90;;;;;;8333892;28;20233;-64
2022/03/10 12:04:15;;;;;;;9.93;6.57;;;6.80;98.00;;;;;;8334927;28;20214;-64
2022/03/10 12:08:18;;;;;;;6.63;3.40;;;7.00;93.40;;;;;;8335085;28;20206;-65
2022/03/10 12:12:22;;;;;;;4.93;3.80;;;7.10;1.00;;;;;;8335713;28;20208;-65
2022/03/10 12:16:23;;;;;;;6.07;4.13;;;7.10;1.00;;;;;;8334609;28;20216;-64
2022/03/10 12:20:24;;;;;;;9.37;5.37;;;7.00;1.00;;;;;;8333131;28;20206;-63
2022/03/10 12:24:34;;;;;;;7.30;5.40;;;7.00;1.00;;;;;;8331264;28;20202;-63
2022/03/10 12:28:37;;;;;;;7.23;4.43;;;7.10;1.00;;;;;;8326749;28;20218;-65
2022/03/10 12:32:44;;;;;;;8.10;4.87;;;7.10;1.00;;;;;;8326844;28;20228;-65
2022/03/10 12:36:49;;;;;;;5.60;4.63;;;7.20;1.00;;;;;;8332853;28;20202;-66
2022/03/10 12:40:51;;;;;;;6.07;4.17;;;7.20;1.00;;;;;;8341215;28;20221;-64
2022/03/10 12:44:54;;;;;;;8.77;5.10;;;7.20;8.70;;;;;;8331044;28;20231;-63
2022/03/10 12:49:24;;;;;;;6.47;4.43;;;7.10;1.00;;;;;;8328439;28;20335;-64
2022/03/10 12:53:31;;;;;;;6.80;4.97;;;7.20;21.20;;;;;;8288692;28;20213;-64
2022/03/10 12:57:37;;;;;;;7.47;5.00;;;7.30;1.00;;;;;;8334685;28;20201;-66
2022/03/10 13:01:38;;;;;;;7.03;4.53;;;7.30;1.00;;;;;;8349187;28;20200;-63
2022/03/10 13:05:39;;;;;;;6.67;5.03;;;7.30;1.00;;;;;;8332796;28;20228;-64
2022/03/10 13:09:39;;;;;;;7.77;4.93;;;7.30;1.00;;;;;;8350928;28;20192;-64
2022/03/10 13:13:40;;;;;;;9.07;5.70;;;7.30;6.50;;;;;;8331755;28;20250;-63
2022/03/10 13:17:43;;;;;;;6.20;4.80;;;7.30;9.40;;;;;;8342691;28;20217;-62
2022/03/10 13:21:55;;;;;;;6.83;4.93;;;7.20;1.90;;;;;;8346071;28;20273;-63
2022/03/10 13:25:56;;;;;;;8.10;5.10;;;7.20;9.40;;;;;;8324474;28;20221;-63
2022/03/10 13:29:57;;;;;;;8.23;4.77;;;7.20;24.70;;;;;;8344728;28;20270;-64
2022/03/10 13:33:59;;;;;;;9.67;4.80;;;7.10;16.20;;;;;;8338049;28;20296;-63
2022/03/10 13:38:01;;;;;;;6.23;4.50;;;7.10;20.20;;;;;;8337715;28;20244;-64
2022/03/10 13:42:08;;;;;;;6.23;4.20;;;7.10;1.50;;;;;;8330032;28;20230;-65
2022/03/10 13:46:16;;;;;;;11.37;4.13;;;7.10;1.00;;;;;;8329577;28;20411;-64
2022/03/10 13:50:20;;;;;;;7.00;4.37;;;7.10;1.00;;;;;;8340862;28;20197;-63
2022/03/10 13:54:20;;;;;;;5.67;3.60;;;7.00;1.00;;;;;;8332044;28;20386;-63
2022/03/10 13:58:21;;;;;;;12.37;7.57;;;6.90;1.00;;;;;;8331631;28;20213;-66
2022/03/10 14:02:26;;;;;;;6.17;4.37;;;6.90;1.00;;;;;;8348716;28;20229;-65
2022/03/10 14:06:27;;;;;;;4.93;3.67;;;6.90;1.00;;;;;;8349152;28;20218;-64
2022/03/10 14:10:30;;;;;;;8.30;4.63;;;6.80;1.00;;;;;;8330907;28;20213;-62
2022/03/10 14:14:33;;;;;;;5.33;3.97;;;6.80;1.00;;;;;;8331097;28;20205;-63
2022/03/10 14:18:35;;;;;;;5.87;4.20;;;6.70;1.00;;;;;;8330365;28;20205;-62
2022/03/10 14:22:36;;;;;;;9.23;5.33;;;6.70;1.00;;;;;;8347271;28;20210;-63
2022/03/10 14:26:38;;;;;;;7.67;4.70;;;6.80;1.00;;;;;;8323534;28;20213;-63
2022/03/10 14:30:39;;;;;;;6.27;4.30;;;6.80;1.00;;;;;;8315110;28;20201;-64
2022/03/10 14:34:40;;;;;;;5.77;4.17;;;6.70;1.00;;;;;;8325030;28;20206;-64
2022/03/10 14:38:42;;;;;;;7.70;4.17;;;6.60;1.00;;;;;;8324390;28;20197;-63
2022/03/10 14:42:42;;;;;;;9.20;5.77;;;6.60;1.00;;;;;;8331823;28;20339;-64
2022/03/10 14:46:43;;;;;;;5.97;3.90;;;6.60;1.00;;;;;;8326702;28;20283;-64
2022/03/10 14:50:44;;;;;;;6.20;3.83;;;6.50;1.00;;;;;;8325225;28;20205;-64
2022/03/10 14:54:45;;;;;;;6.03;4.00;;;6.50;1.00;;;;;;8319501;28;20197;-65
2022/03/10 14:58:47;;;;;;;8.53;4.30;;;6.40;1.00;;;;;;8325893;28;20213;-63
2022/03/10 15:02:51;;;;;;;8.40;4.97;;;6.30;1.00;;;;;;8326618;28;20197;-64
2022/03/10 15:06:52;;;;;;;7.40;4.60;;;6.30;1.00;;;;;;8324394;28;20225;-63
2022/03/10 15:10:53;;;;;;;8.43;4.87;;;6.30;1.00;;;;;;8344506;28;20208;-65
2022/03/10 15:14:54;;;;;;;11.27;5.43;;;6.20;1.00;;;;;;8342113;28;20201;-64
2022/03/10 15:18:55;;;;;;;7.70;4.87;;;6.20;1.00;;;;;;8344830;28;20194;-64
2022/03/10 15:22:56;;;;;;;8.70;5.57;;;6.10;1.00;;;;;;8327680;28;20316;-62
2022/03/10 15:26:56;;;;;;;15.83;9.50;;;6.10;1.00;;;;;;8319994;28;20217;-64
2022/03/10 15:30:58;;;;;;;14.83;6.60;;;6.00;1.00;;;;;;8331222;28;20292;-65
2022/03/10 15:34:59;;;;;;;11.50;6.80;;;6.00;1.00;;;;;;8335365;28;20229;-63
2022/03/10 15:39:00;;;;;;;18.33;7.97;;;5.80;1.00;;;;;;8353543;28;20209;-63
2022/03/10 15:43:02;;;;;;;12.20;7.10;;;5.70;1.00;;;;;;8336038;28;20206;-63
2022/03/10 15:47:03;;;;;;;15.43;7.67;;;5.50;1.00;;;;;;8334846;28;20225;-65
2022/03/10 15:51:04;;;;;;;17.33;8.07;;;5.40;1.00;;;;;;8335433;28;20225;-64
2022/03/10 15:55:05;;;;;;;14.73;7.30;;;5.30;1.00;;;;;;8352885;28;20195;-64
2022/03/10 15:59:06;;;;;;;12.03;6.20;;;5.20;1.00;;;;;;8334284;28;20214;-65
2022/03/10 16:03:07;;;;;;;28.53;12.70;;;5.10;1.00;;;;;;8334889;28;20201;-62
2022/03/10 16:07:09;;;;;;;27.27;12.47;;;4.90;1.00;;;;;;8335299;28;20314;-65
2022/03/10 16:11:10;;;;;;;23.07;10.33;;;4.80;1.00;;;;;;8334907;28;20206;-62
2022/03/10 16:15:11;;;;;;;21.70;9.90;;;4.70;1.00;;;;;;8352416;28;20193;-65
2022/03/10 16:19:12;;;;;;;22.20;10.70;;;4.50;1.00;;;;;;8334129;28;20520;-63
2022/03/10 16:23:14;;;;;;;13.17;6.53;;;4.40;1.00;;;;;;8352673;28;20201;-65
2022/03/10 16:27:16;;;;;;;10.97;6.20;;;4.20;1.00;;;;;;8334595;28;20221;-65
2022/03/10 16:31:16;;;;;;;11.03;6.17;;;4.00;1.00;;;;;;8325216;28;20199;-66
2022/03/10 16:35:17;;;;;;;12.40;6.67;;;3.80;1.00;;;;;;8333476;28;20204;-65
2022/03/10 16:39:18;;;;;;;10.30;6.03;;;3.70;4.10;;;;;;8332864;28;20205;-65
2022/03/10 16:43:19;;;;;;;9.70;5.23;;;3.50;1.00;;;;;;8332937;28;20212;-64
2022/03/10 16:47:20;;;;;;;11.80;5.60;;;3.20;12.90;;;;;;8351091;28;20312;-66
2022/03/10 16:51:21;;;;;;;25.13;11.30;;;3.00;26.40;;;;;;8333631;28;20202;-63
2022/03/10 16:55:22;;;;;;;26.10;10.53;;;2.80;41.00;;;;;;8333439;28;20216;-65
2022/03/10 16:59:25;;;;;;;17.47;9.37;;;2.60;71.90;;;;;;8333799;28;20217;-66
2022/03/10 17:03:26;;;;;;;12.47;7.43;;;2.40;92.50;;;;;;8351286;28;20194;-63
2022/03/10 17:07:27;;;;;;;10.13;5.57;;;2.20;97.00;;;;;;8332915;28;20226;-65
2022/03/10 17:11:28;;;;;;;10.17;5.60;;;2.10;99.90;;;;;;8350830;28;20201;-65
2022/03/10 17:15:29;;;;;;;8.50;4.77;;;1.90;99.90;;;;;;8350487;28;20362;-65
2022/03/10 17:19:32;;;;;;;13.20;6.17;;;1.80;99.90;;;;;;8350340;28;20327;-66
2022/03/10 17:23:33;;;;;;;11.73;6.33;;;1.60;99.90;;;;;;8332537;28;20223;-66
2022/03/10 17:27:35;;;;;;;13.27;7.00;;;1.50;99.90;;;;;;8324289;28;20232;-65
2022/03/10 17:31:36;;;;;;;18.70;11.37;;;1.40;99.90;;;;;;8339231;28;20190;-66
2022/03/10 17:35:38;;;;;;;20.67;10.13;;;1.30;99.90;;;;;;8349542;28;20211;-65
2022/03/10 17:39:39;;;;;;;13.10;5.97;;;1.10;99.90;;;;;;8345753;28;20198;-66
2022/03/10 17:43:41;;;;;;;12.10;6.80;;;1.00;99.90;;;;;;8340169;28;20257;-66
2022/03/10 17:47:45;;;;;;;18.60;7.77;;;0.90;99.90;;;;;;8344125;28;20226;-65
2022/03/10 17:51:47;;;;;;;11.83;6.70;;;0.80;99.90;;;;;;8324117;28;20209;-66
2022/03/10 17:55:48;;;;;;;11.67;5.83;;;0.70;99.90;;;;;;8332432;28;20207;-66
2022/03/10 17:59:49;;;;;;;20.13;8.63;;;0.50;99.90;;;;;;8329934;28;20212;-64
2022/03/10 18:03:51;;;;;;;42.63;17.63;;;0.40;99.90;;;;;;8332075;28;20212;-65
2022/03/10 18:07:53;;;;;;;29.43;11.57;;;0.30;99.90;;;;;;8350075;28;20221;-64
2022/03/10 18:11:54;;;;;;;23.17;9.97;;;0.20;99.90;;;;;;8332404;28;20347;-64
2022/03/10 18:15:54;;;;;;;54.03;17.83;;;0.20;99.90;;;;;;8349644;28;20283;-64
2022/03/10 18:19:55;;;;;;;37.67;14.57;;;0.20;99.90;;;;;;8328829;28;20207;-65
2022/03/10 18:23:56;;;;;;;27.07;10.20;;;0.20;99.90;;;;;;8342345;28;20210;-65
2022/03/10 18:27:57;;;;;;;23.10;10.57;;;0.20;99.90;;;;;;8339095;28;20218;-65
2022/03/10 18:31:58;;;;;;;21.73;8.83;;;0.20;99.90;;;;;;8339712;28;20194;-65
2022/03/10 18:35:59;;;;;;;25.67;11.77;;;0.20;99.90;;;;;;8328107;28;20289;-66
2022/03/10 18:40:01;;;;;;;13.40;6.07;;;0.20;99.90;;;;;;8314037;28;20216;-65
2022/03/10 18:44:02;;;;;;;14.33;6.67;;;0.20;99.90;;;;;;8330795;28;20197;-65
2022/03/10 18:48:03;;;;;;;18.10;7.83;;;0.20;99.90;;;;;;8347787;28;20288;-65
2022/03/10 18:52:04;;;;;;;13.53;5.83;;;0.10;99.90;;;;;;8348756;28;20207;-65
2022/03/10 18:56:05;;;;;;;21.03;12.70;;;0.00;99.90;;;;;;8348151;28;20229;-63
2022/03/10 19:00:07;;;;;;;37.83;12.30;;;0.00;99.90;;;;;;8329485;28;20632;-66
2022/03/10 19:04:08;;;;;;;30.30;10.57;;;-0.10;99.90;;;;;;8332213;28;20209;-65
2022/03/10 19:08:09;;;;;;;31.23;11.27;;;-0.10;99.90;;;;;;8352831;28;20213;-65
2022/03/10 19:12:10;;;;;;;17.97;6.97;;;-0.10;99.90;;;;;;8336497;28;20237;-63
2022/03/10 19:16:12;;;;;;;27.70;8.83;;;-0.20;99.90;;;;;;8354262;28;20197;-65
2022/03/10 19:20:13;;;;;;;25.60;9.77;;;-0.20;99.90;;;;;;8351549;28;20214;-65
2022/03/10 19:24:15;;;;;;;23.07;8.27;;;-0.20;99.90;;;;;;8329300;28;20201;-63
2022/03/10 19:28:16;;;;;;;29.53;12.07;;;-0.20;99.90;;;;;;8347535;28;20226;-64
2022/03/10 19:32:19;;;;;;;31.77;11.20;;;-0.30;99.90;;;;;;8351384;28;20239;-65
2022/03/10 19:36:21;;;;;;;40.70;13.47;;;-0.30;99.90;;;;;;8348272;28;20210;-62
2022/03/10 19:40:23;;;;;;;35.93;12.97;;;-0.40;99.90;;;;;;8327113;28;20284;-66
2022/03/10 19:44:24;;;;;;;26.77;11.63;;;-0.50;1.00;;;;;;8353022;28;20221;-64
2022/03/10 19:48:25;;;;;;;18.13;8.80;;;-0.50;1.00;;;;;;8351713;28;20221;-65
2022/03/10 19:52:26;;;;;;;21.07;9.40;;;-0.50;1.00;;;;;;8335494;28;20382;-66
2022/03/10 19:56:27;;;;;;;12.90;6.73;;;-0.60;1.00;;;;;;8334537;28;20201;-66
2022/03/10 20:00:29;;;;;;;17.33;7.03;;;-0.70;1.00;;;;;;8350635;28;20217;-63
2022/03/10 20:04:32;;;;;;;10.10;5.00;;;-0.70;1.00;;;;;;8335054;28;20198;-66
2022/03/10 20:08:33;;;;;;;11.20;5.40;;;-0.80;1.00;;;;;;8334355;28;20245;-64
2022/03/10 20:12:34;;;;;;;10.50;5.13;;;-0.80;1.00;;;;;;8335203;28;20281;-65
2022/03/10 20:16:36;;;;;;;11.03;5.17;;;-0.80;1.00;;;;;;8333842;28;20216;-65
2022/03/10 20:20:37;;;;;;;10.43;4.03;;;-0.90;1.00;;;;;;8327066;28;20208;-63
2022/03/10 20:24:41;;;;;;;8.77;4.23;;;-1.00;1.00;;;;;;8333072;28;20300;-65
2022/03/10 20:28:43;;;;;;;8.47;4.37;;;-1.10;1.00;;;;;;8347342;28;20327;-65
2022/03/10 20:32:44;;;;;;;9.27;4.53;;;-1.20;1.00;;;;;;8333810;28;20194;-63
2022/03/10 20:36:44;;;;;;;7.87;5.03;;;-1.30;1.00;;;;;;8335209;28;20237;-66
2022/03/10 20:40:47;;;;;;;11.13;5.33;;;-1.40;1.00;;;;;;8351552;28;20227;-65
2022/03/10 20:44:50;;;;;;;13.13;5.47;;;-1.40;6.00;;;;;;8333563;28;20205;-65
2022/03/10 20:48:51;;;;;;;9.90;4.87;;;-1.50;28.30;;;;;;8348689;28;20209;-64
2022/03/10 20:52:53;;;;;;;12.50;5.33;;;-1.50;39.70;;;;;;8351850;28;20244;-64
2022/03/10 20:56:57;;;;;;;12.60;6.03;;;-1.50;74.20;;;;;;8333458;28;20216;-65